Time,TemperatureF,DewpointF,PressureIn,WindDirection,WindDirectionDegrees,WindSpeedMPH,WindSpeedGustMPH,Humidity,HourlyPrecipIn,Conditions,Clouds,dailyrainin,SoftwareType,DateUTC
2013-09-15 00:09:00,57.4,50.0,29.38,WSW,242,2.0,3.0,76,0.00,,,0.00,weatherlink.com 1.10,2013-09-15 04:09:00,
2013-09-15 00:24:00,57.2,50.0,29.37,SW,222,0.0,4.0,77,0.00,,,0.00,weatherlink.com 1.10,2013-09-15 04:24:00,
2013-09-15 00:39:00,57.1,50.0,29.38,SSW,211,0.0,3.0,77,0.00,,,0.00,weatherlink.com 1.10,2013-09-15 04:39:00,
2013-09-15 00:54:00,56.6,49.0,29.38,SSE,160,2.0,2.0,77,0.00,,,0.00,weatherlink.com 1.10,2013-09-15 04:54:00,
2013-09-15 01:09:00,55.9,50.0,29.37,South,188,0.0,2.0,79,0.00,,,0.00,weatherlink.com 1.10,2013-09-15 05:09:00,
2013-09-15 01:24:00,55.3,49.0,29.37,SSE,156,1.0,4.0,80,0.00,,,0.00,weatherlink.com 1.10,2013-09-15 05:24:00,
2013-09-15 01:39:00,55.4,49.0,29.37,SW,218,1.0,3.0,80,0.00,,,0.00,weatherlink.com 1.10,2013-09-15 05:39:00,
2013-09-15 01:54:00,54.9,49.0,29.37,SW,218,0.0,0.0,81,0.00,,,0.00,weatherlink.com 1.10,2013-09-15 05:54:00,
2013-09-15 02:09:00,53.9,49.0,29.37,SW,218,0.0,0.0,83,0.00,,,0.00,weatherlink.com 1.10,2013-09-15 06:09:00,
2013-09-15 02:24:00,53.3,49.0,29.37,South,171,0.0,1.0,84,0.00,,,0.00,weatherlink.com 1.10,2013-09-15 06:24:00,
2013-09-15 02:39:00,52.5,48.0,29.36,South,171,0.0,0.0,85,0.00,,,0.00,weatherlink.com 1.10,2013-09-15 06:39:00,
2013-09-15 02:54:00,52.7,48.0,29.36,South,170,0.0,1.0,85,0.00,,,0.00,weatherlink.com 1.10,2013-09-15 06:54:00,
2013-09-15 03:09:00,53.5,49.0,29.36,South,174,1.0,1.0,84,0.00,,,0.00,weatherlink.com 1.10,2013-09-15 07:09:00,
2013-09-15 03:24:00,54.6,49.0,29.36,SSW,198,0.0,2.0,82,0.00,,,0.00,weatherlink.com 1.10,2013-09-15 07:24:00,
2013-09-15 03:39:00,55.1,49.0,29.36,SSE,156,1.0,1.0,81,0.00,,,0.00,weatherlink.com 1.10,2013-09-15 07:39:00,
2013-09-15 03:54:00,55.3,49.0,29.36,South,182,1.0,4.0,80,0.00,,,0.00,weatherlink.com 1.10,2013-09-15 07:54:00,
2013-09-15 04:09:00,55.5,49.0,29.37,South,191,1.0,3.0,80,0.00,,,0.00,weatherlink.com 1.10,2013-09-15 08:09:00,
2013-09-15 04:24:00,55.2,49.0,29.36,SSE,165,1.0,2.0,80,0.00,,,0.00,weatherlink.com 1.10,2013-09-15 08:24:00,
2013-09-15 04:39:00,54.9,49.0,29.36,South,171,0.0,3.0,80,0.00,,,0.00,weatherlink.com 1.10,2013-09-15 08:39:00,
2013-09-15 04:54:00,55.0,49.0,29.36,South,179,0.0,2.0,80,0.00,,,0.00,weatherlink.com 1.10,2013-09-15 08:54:00,
2013-09-15 05:09:00,55.0,49.0,29.37,SSW,194,0.0,2.0,81,0.00,,,0.00,weatherlink.com 1.10,2013-09-15 09:09:00,
2013-09-15 05:24:00,55.1,49.0,29.37,SSW,195,2.0,4.0,80,0.00,,,0.00,weatherlink.com 1.10,2013-09-15 09:24:00,
2013-09-15 05:40:00,55.1,49.0,29.38,SW,231,1.0,4.0,80,0.00,,,0.00,weatherlink.com 1.10,2013-09-15 09:40:00,
2013-09-15 05:55:00,55.0,49.0,29.38,SSW,201,2.0,3.0,79,0.00,,,0.00,weatherlink.com 1.10,2013-09-15 09:55:00,
2013-09-15 06:10:00,54.9,49.0,29.38,South,181,1.0,2.0,79,0.00,,,0.00,weatherlink.com 1.10,2013-09-15 10:10:00,
2013-09-15 06:25:00,55.3,49.0,29.37,SW,217,1.0,3.0,78,0.00,,,0.00,weatherlink.com 1.10,2013-09-15 10:25:00,
2013-09-15 06:40:00,55.7,48.0,29.37,SW,231,5.0,5.0,76,0.00,,,0.00,weatherlink.com 1.10,2013-09-15 10:40:00,
2013-09-15 06:55:00,55.4,48.0,29.38,South,173,1.0,3.0,77,0.00,,,0.00,weatherlink.com 1.10,2013-09-15 10:55:00,
2013-09-15 07:10:00,55.1,48.0,29.38,SW,216,1.0,2.0,78,0.00,,,0.00,weatherlink.com 1.10,2013-09-15 11:10:00,
2013-09-15 07:25:00,55.0,48.0,29.38,SSE,165,0.0,4.0,77,0.00,,,0.00,weatherlink.com 1.10,2013-09-15 11:25:00,
2013-09-15 07:41:00,55.0,48.0,29.39,SW,226,2.0,3.0,77,0.00,,,0.00,weatherlink.com 1.10,2013-09-15 11:41:00,
2013-09-15 07:55:00,55.3,47.0,29.38,SSW,200,2.0,6.0,73,0.00,,,0.00,weatherlink.com 1.10,2013-09-15 11:55:00,
2013-09-15 08:10:00,55.5,47.0,29.38,SSW,195,4.0,5.0,72,0.00,,,0.00,weatherlink.com 1.10,2013-09-15 12:10:00,
2013-09-15 08:25:00,55.6,47.0,29.37,South,176,0.0,3.0,73,0.00,,,0.00,weatherlink.com 1.10,2013-09-15 12:25:00,
2013-09-15 08:40:00,55.6,47.0,29.36,SSE,162,0.0,3.0,73,0.00,,,0.00,weatherlink.com 1.10,2013-09-15 12:40:00,
2013-09-15 08:55:00,56.0,47.0,29.34,SSE,167,2.0,3.0,72,0.00,,,0.00,weatherlink.com 1.10,2013-09-15 12:55:00,
2013-09-15 09:10:00,56.1,47.0,29.36,SSE,158,1.0,5.0,71,0.00,,,0.00,weatherlink.com 1.10,2013-09-15 13:10:00,
2013-09-15 09:25:00,56.4,47.0,29.36,SSW,197,2.0,9.0,70,0.00,,,0.00,weatherlink.com 1.10,2013-09-15 13:25:00,
2013-09-15 09:40:00,57.0,47.0,29.36,SSW,210,2.0,6.0,69,0.00,,,0.00,weatherlink.com 1.10,2013-09-15 13:40:00,
2013-09-15 09:55:00,57.6,47.0,29.35,SW,218,1.0,6.0,67,0.00,,,0.00,weatherlink.com 1.10,2013-09-15 13:55:00,
2013-09-15 10:10:00,58.3,47.0,29.35,SSW,200,2.0,2.0,67,0.00,,,0.00,weatherlink.com 1.10,2013-09-15 14:10:00,
2013-09-15 10:25:00,58.7,47.0,29.36,SSE,152,2.0,4.0,66,0.00,,,0.00,weatherlink.com 1.10,2013-09-15 14:25:00,
2013-09-15 10:40:00,58.4,47.0,29.36,SW,233,3.0,6.0,67,0.00,,,0.00,weatherlink.com 1.10,2013-09-15 14:40:00,
2013-09-15 10:55:00,58.4,48.0,29.37,South,179,2.0,7.0,68,0.00,,,0.00,weatherlink.com 1.10,2013-09-15 14:55:00,
2013-09-15 11:10:00,58.6,48.0,29.36,SSE,166,0.0,8.0,68,0.00,,,0.00,weatherlink.com 1.10,2013-09-15 15:10:00,
2013-09-15 11:25:00,59.3,49.0,29.37,South,183,1.0,4.0,68,0.00,,,0.00,weatherlink.com 1.10,2013-09-15 15:25:00,
2013-09-15 11:40:00,59.9,49.0,29.36,SSW,204,2.0,4.0,68,0.00,,,0.00,weatherlink.com 1.10,2013-09-15 15:40:00,
2013-09-15 11:55:00,59.9,50.0,29.36,South,176,2.0,4.0,69,0.00,,,0.00,weatherlink.com 1.10,2013-09-15 15:55:00,
2013-09-15 12:10:00,60.1,50.0,29.37,SW,226,0.0,5.0,70,0.00,,,0.00,weatherlink.com 1.10,2013-09-15 16:10:00,
2013-09-15 12:25:00,60.3,50.0,29.37,WSW,238,3.0,6.0,70,0.00,,,0.00,weatherlink.com 1.10,2013-09-15 16:25:00,
2013-09-15 12:40:00,60.5,51.0,29.37,SSW,204,1.0,3.0,71,0.00,,,0.00,weatherlink.com 1.10,2013-09-15 16:40:00,
2013-09-15 12:55:00,60.7,51.0,29.37,SSW,194,3.0,6.0,71,0.00,,,0.00,weatherlink.com 1.10,2013-09-15 16:55:00,
2013-09-15 13:10:00,60.9,51.0,29.37,SSW,193,1.0,6.0,71,0.00,,,0.00,weatherlink.com 1.10,2013-09-15 17:10:00,
2013-09-15 13:25:00,60.9,52.0,29.37,SW,233,4.0,6.0,73,0.00,,,0.00,weatherlink.com 1.10,2013-09-15 17:25:00,
2013-09-15 13:40:00,60.9,53.0,29.37,SSW,200,5.0,6.0,75,0.00,,,0.00,weatherlink.com 1.10,2013-09-15 17:40:00,
2013-09-15 13:55:00,60.6,53.0,29.37,SW,214,6.0,8.0,77,0.00,,,0.00,weatherlink.com 1.10,2013-09-15 17:55:00,
2013-09-15 14:10:00,60.6,53.0,29.37,SW,231,6.0,7.0,77,0.00,,,0.00,weatherlink.com 1.10,2013-09-15 18:10:00,
2013-09-15 14:25:00,61.1,54.0,29.37,WSW,243,2.0,5.0,78,0.00,,,0.00,weatherlink.com 1.10,2013-09-15 18:25:00,
2013-09-15 14:40:00,60.7,54.0,29.36,SW,215,2.0,4.0,79,0.00,,,0.00,weatherlink.com 1.10,2013-09-15 18:40:00,
2013-09-15 14:55:00,60.9,54.0,29.37,SW,214,1.0,5.0,78,0.00,,,0.00,weatherlink.com 1.10,2013-09-15 18:55:00,
2013-09-15 15:10:00,60.8,55.0,29.38,SW,217,3.0,9.0,80,0.00,,,0.00,weatherlink.com 1.10,2013-09-15 19:10:00,
2013-09-15 15:25:00,59.4,54.0,29.37,WSW,249,0.0,9.0,82,0.01,,,0.01,weatherlink.com 1.10,2013-09-15 19:25:00,
2013-09-15 15:40:00,59.1,54.0,29.37,SSE,163,2.0,5.0,83,0.01,,,0.01,weatherlink.com 1.10,2013-09-15 19:40:00,
2013-09-15 15:55:00,59.1,54.0,29.36,South,174,0.0,2.0,83,0.01,,,0.01,weatherlink.com 1.10,2013-09-15 19:55:00,
2013-09-15 16:10:00,59.5,54.0,29.36,SSW,204,1.0,3.0,83,0.01,,,0.01,weatherlink.com 1.10,2013-09-15 20:10:00,
2013-09-15 16:25:00,59.6,54.0,29.36,SSW,204,0.0,1.0,83,0.00,,,0.01,weatherlink.com 1.10,2013-09-15 20:25:00,
2013-09-15 16:40:00,59.4,55.0,29.37,SW,229,0.0,2.0,84,0.00,,,0.01,weatherlink.com 1.10,2013-09-15 20:40:00,
2013-09-15 16:55:00,59.0,54.0,29.38,SSW,212,1.0,4.0,84,0.00,,,0.01,weatherlink.com 1.10,2013-09-15 20:55:00,
2013-09-15 17:10:00,58.6,54.0,29.37,SSW,207,0.0,2.0,85,0.03,,,0.04,weatherlink.com 1.10,2013-09-15 21:10:00,
2013-09-15 17:25:00,58.4,54.0,29.38,SSW,207,0.0,1.0,85,0.05,,,0.06,weatherlink.com 1.10,2013-09-15 21:25:00,
2013-09-15 17:40:00,58.0,54.0,29.38,SW,224,0.0,1.0,86,0.06,,,0.07,weatherlink.com 1.10,2013-09-15 21:40:00,
2013-09-15 17:55:00,57.8,54.0,29.38,NNE,25,1.0,2.0,86,0.08,,,0.09,weatherlink.com 1.10,2013-09-15 21:55:00,
2013-09-15 18:10:00,57.1,53.0,29.39,WSW,255,1.0,2.0,86,0.06,,,0.10,weatherlink.com 1.10,2013-09-15 22:10:00,
2013-09-15 18:25:00,57.0,53.0,29.39,WSW,242,1.0,3.0,86,0.05,,,0.11,weatherlink.com 1.10,2013-09-15 22:25:00,
2013-09-15 18:40:00,57.0,53.0,29.39,West,271,0.0,1.0,86,0.04,,,0.11,weatherlink.com 1.10,2013-09-15 22:40:00,
2013-09-15 18:55:00,56.9,53.0,29.40,WSW,238,2.0,3.0,86,0.03,,,0.12,weatherlink.com 1.10,2013-09-15 22:55:00,
2013-09-15 19:11:00,56.7,53.0,29.40,SW,232,1.0,3.0,86,0.02,,,0.12,weatherlink.com 1.10,2013-09-15 23:11:00,
2013-09-15 19:26:00,56.4,52.0,29.40,South,186,1.0,2.0,86,0.01,,,0.12,weatherlink.com 1.10,2013-09-15 23:26:00,
2013-09-15 19:41:00,56.2,52.0,29.40,SSW,211,1.0,2.0,87,0.02,,,0.13,weatherlink.com 1.10,2013-09-15 23:41:00,
2013-09-15 19:56:00,56.2,52.0,29.41,SSW,211,0.0,1.0,87,0.01,,,0.13,weatherlink.com 1.10,2013-09-15 23:56:00,
2013-09-15 20:11:00,56.2,52.0,29.41,SSW,198,1.0,2.0,87,0.01,,,0.13,weatherlink.com 1.10,2013-09-16 00:11:00,
2013-09-15 20:26:00,56.1,52.0,29.41,SSW,195,1.0,3.0,87,0.01,,,0.13,weatherlink.com 1.10,2013-09-16 00:26:00,
2013-09-15 20:41:00,56.0,52.0,29.41,SSW,206,2.0,4.0,87,0.00,,,0.13,weatherlink.com 1.10,2013-09-16 00:41:00,
2013-09-15 20:56:00,55.9,52.0,29.42,SSW,207,0.0,2.0,88,0.00,,,0.13,weatherlink.com 1.10,2013-09-16 00:56:00,
2013-09-15 21:11:00,55.7,52.0,29.42,SSW,204,0.0,3.0,87,0.00,,,0.13,weatherlink.com 1.10,2013-09-16 01:11:00,
2013-09-15 21:26:00,55.4,52.0,29.42,SSW,197,1.0,2.0,87,0.00,,,0.13,weatherlink.com 1.10,2013-09-16 01:26:00,
2013-09-15 21:41:00,55.3,52.0,29.42,SW,233,0.0,2.0,88,0.00,,,0.13,weatherlink.com 1.10,2013-09-16 01:41:00,
2013-09-15 21:56:00,54.9,51.0,29.42,SW,233,1.0,1.0,87,0.00,,,0.13,weatherlink.com 1.10,2013-09-16 01:56:00,
2013-09-15 22:11:00,54.1,51.0,29.43,SW,232,0.0,0.0,88,0.00,,,0.13,weatherlink.com 1.10,2013-09-16 02:11:00,
2013-09-15 22:26:00,54.1,51.0,29.43,SW,232,1.0,1.0,88,0.00,,,0.13,weatherlink.com 1.10,2013-09-16 02:26:00,
2013-09-15 22:41:00,54.0,51.0,29.43,SW,232,1.0,1.0,88,0.00,,,0.13,weatherlink.com 1.10,2013-09-16 02:41:00,
2013-09-15 22:56:00,54.0,51.0,29.43,SSW,203,0.0,1.0,88,0.00,,,0.13,weatherlink.com 1.10,2013-09-16 02:56:00,
2013-09-15 23:11:00,54.3,51.0,29.44,SSW,204,0.0,2.0,88,0.00,,,0.13,weatherlink.com 1.10,2013-09-16 03:11:00,
2013-09-15 23:26:00,54.6,51.0,29.43,SW,226,1.0,3.0,88,0.00,,,0.13,weatherlink.com 1.10,2013-09-16 03:26:00,
2013-09-15 23:41:00,54.8,51.0,29.44,SW,225,2.0,2.0,88,0.00,,,0.13,weatherlink.com 1.10,2013-09-16 03:41:00,
2013-09-15 23:56:00,54.8,51.0,29.44,SW,219,0.0,3.0,88,0.00,,,0.13,weatherlink.com 1.10,2013-09-16 03:56:00,